Time;durP1;ratioP1;P1;durP2;ratioP2;P2;SDS_P1;SDS_P2;PMS_P1;PMS_P2;Temp;Humidity;BMP_temperature;BMP_pressure;BME280_temperature;BME280_humidity;BME280_pressure;Samples;Min_cycle;Max_cycle;Signal;HPM_P1;HPM_P2
2024/03/23 00:00:03;;;;;;;16.20;10.60;;;;;;;6.47;67.94;99090.23;107323;1256;61437;-38
2024/03/23 00:02:37;;;;;;;25.70;14.40;;;;;;;6.45;68.02;99088.98;107270;1256;61082;-38
2024/03/23 00:05:05;;;;;;;23.20;14.10;;;;;;;6.40;68.30;99085.94;107334;1254;73737;-39
2024/03/23 00:07:33;;;;;;;26.10;14.80;;;;;;;6.37;68.36;99084.76;107353;1260;66294;-39
2024/03/23 00:10:00;;;;;;;20.90;15.10;;;;;;;6.33;68.50;99083.39;107317;1256;71423;-38
2024/03/23 00:12:28;;;;;;;24.40;14.90;;;;;;;6.30;68.63;99081.53;107296;1260;61341;-38
2024/03/23 00:14:55;;;;;;;22.10;14.80;;;;;;;6.26;68.86;99077.80;107337;1256;60084;-38
2024/03/23 00:17:23;;;;;;;22.60;12.50;;;;;;;6.29;68.85;99071.81;107306;1256;74665;-38
2024/03/23 00:19:50;;;;;;;23.10;13.70;;;;;;;6.34;68.88;99072.98;107266;1256;67632;-38
2024/03/23 00:22:18;;;;;;;20.30;13.80;;;;;;;6.34;68.83;99068.58;107228;1260;72209;-38
2024/03/23 00:24:45;;;;;;;21.80;14.10;;;;;;;6.31;68.91;99064.34;107251;1260;61233;-38
2024/03/23 00:27:13;;;;;;;22.50;15.40;;;;;;;6.29;69.07;99063.83;107313;1254;61117;-38
2024/03/23 00:29:40;;;;;;;23.20;14.40;;;;;;;6.28;69.10;99063.19;107246;1256;73898;-38
2024/03/23 00:32:07;;;;;;;26.10;14.80;;;;;;;6.26;69.17;99064.73;107284;1256;66617;-38
2024/03/23 00:34:35;;;;;;;22.30;14.80;;;;;;;6.25;69.28;99061.83;107262;1254;72798;-38
2024/03/23 00:37:02;;;;;;;23.90;14.10;;;;;;;6.24;69.35;99065.42;107269;1255;61057;-38
2024/03/23 00:39:30;;;;;;;20.90;12.70;;;;;;;6.27;69.40;99063.66;107217;1255;60174;-38
2024/03/23 00:41:57;;;;;;;23.00;13.40;;;;;;;6.34;69.17;99060.27;107259;1254;74597;-38
2024/03/23 00:44:27;;;;;;;24.10;14.40;;;;;;;6.37;69.37;99057.30;107342;1254;67700;-38
2024/03/23 00:46:55;;;;;;;22.50;14.80;;;;;;;6.37;69.35;99057.61;107588;1254;72684;-38
2024/03/23 00:49:22;;;;;;;24.20;15.40;;;;;;;6.38;69.42;99054.31;107597;1254;61353;-38
2024/03/23 00:51:50;;;;;;;20.30;14.30;;;;;;;6.36;69.67;99051.88;107585;1254;61199;-38
2024/03/23 00:54:17;;;;;;;23.70;14.60;;;;;;;6.35;69.72;99049.16;107608;1252;74637;-38
2024/03/23 00:56:44;;;;;;;23.90;16.40;;;;;;;6.35;69.74;99045.68;107610;1259;65379;-38
2024/03/23 00:59:13;;;;;;;26.30;15.00;;;;;;;6.34;69.96;99045.42;107687;1254;71459;-38
2024/03/23 01:01:41;;;;;;;21.30;12.60;;;;;;;6.38;69.93;99040.09;107581;1254;61304;-38
2024/03/23 01:04:08;;;;;;;23.40;13.90;;;;;;;6.45;69.94;99032.84;107630;1254;61236;-39
2024/03/23 01:06:36;;;;;;;25.20;14.60;;;;;;;6.48;69.98;99036.23;107614;1253;73448;-38
2024/03/23 01:09:03;;;;;;;20.50;14.40;;;;;;;6.46;70.09;99036.79;107595;1252;67593;-38
2024/03/23 01:11:30;;;;;;;24.10;15.90;;;;;;;6.44;70.25;99033.80;107700;1256;70827;-38
2024/03/23 01:13:58;;;;;;;23.40;15.30;;;;;;;6.43;70.40;99031.70;107665;1253;61325;-38
2024/03/23 01:16:25;;;;;;;19.50;14.40;;;;;;;6.44;70.33;99029.09;107574;1254;61116;-38
2024/03/23 01:18:53;;;;;;;26.30;15.80;;;;;;;6.43;70.48;99031.40;107586;1254;73356;-38
2024/03/23 01:21:20;;;;;;;24.20;14.70;;;;;;;6.42;70.50;99028.39;107597;1254;66272;-38
2024/03/23 01:23:47;;;;;;;18.40;13.80;;;;;;;6.47;70.46;99030.20;107595;1254;72311;-38
2024/03/23 01:26:15;;;;;;;21.40;14.10;;;;;;;6.53;70.25;99024.21;107570;1254;61100;-38
2024/03/23 01:28:42;;;;;;;22.10;13.80;;;;;;;6.57;70.28;99027.02;107569;1255;61100;-38
2024/03/23 01:31:09;;;;;;;22.50;14.50;;;;;;;6.56;70.32;99030.17;107519;1254;73845;-38
2024/03/23 01:33:37;;;;;;;20.80;15.20;;;;;;;6.58;70.45;99026.91;107579;1254;66283;-38
2024/03/23 01:36:05;;;;;;;19.90;14.50;;;;;;;6.58;70.47;99025.36;107593;1253;72689;-38
2024/03/23 01:38:33;;;;;;;22.90;15.00;;;;;;;6.60;70.33;99027.87;107589;1254;61221;-38
2024/03/23 01:41:00;;;;;;;22.70;15.80;;;;;;;6.60;70.53;99027.58;107590;1254;61215;-38
2024/03/23 01:43:27;;;;;;;23.10;15.00;;;;;;;6.60;70.47;99024.73;107601;1254;73363;-38
2024/03/23 01:45:55;;;;;;;23.90;14.50;;;;;;;6.64;70.45;99019.79;107636;1254;66076;-38
2024/03/23 01:48:23;;;;;;;21.20;14.10;;;;;;;6.72;70.34;99022.15;107622;1254;72678;-38
2024/03/23 01:50:50;;;;;;;23.40;14.30;;;;;;;6.74;70.34;99015.90;107652;1254;61113;-38
2024/03/23 01:53:19;;;;;;;25.00;15.80;;;;;;;6.77;70.33;99014.14;107605;1253;61096;-38
2024/03/23 01:55:48;;;;;;;24.70;15.80;;;;;;;6.78;70.32;99012.54;107510;1254;74660;-38
2024/03/23 01:58:15;;;;;;;20.70;14.80;;;;;;;6.75;70.51;99012.64;107662;1254;66291;-39
2024/03/23 02:00:43;;;;;;;25.00;16.20;;;;;;;6.76;70.50;99011.10;107625;1254;72712;-39
2024/03/23 02:03:24;;;;;;;26.80;15.80;;;;;;;6.77;70.59;99009.21;107596;1254;60877;-39
2024/03/23 02:05:52;;;;;;;25.40;14.80;;;;;;;6.79;70.50;99006.02;107603;1254;60049;-39
2024/03/23 02:08:20;;;;;;;20.90;14.60;;;;;;;6.83;70.42;99001.68;107504;1254;73421;-39
2024/03/23 02:10:49;;;;;;;20.30;14.00;;;;;;;6.88;70.36;98992.44;107622;1254;66313;-39
2024/03/23 02:13:17;;;;;;;22.50;15.60;;;;;;;6.88;70.42;98989.57;107612;1254;71454;-39
2024/03/23 02:15:45;;;;;;;22.00;15.10;;;;;;;6.87;70.63;98987.92;107657;1254;61333;-39
2024/03/23 02:18:12;;;;;;;24.00;15.90;;;;;;;6.77;70.60;98976.17;107613;1254;61669;-39
2024/03/23 02:20:40;;;;;;;22.20;15.50;;;;;;;6.80;70.74;98983.90;107575;1257;74728;-39
2024/03/23 02:23:15;;;;;;;20.80;14.70;;;;;;;6.78;70.82;98979.38;107688;1254;67071;-39
2024/03/23 02:25:43;;;;;;;24.20;15.50;;;;;;;6.75;70.74;98979.42;107670;1254;71676;-39
2024/03/23 02:28:10;;;;;;;20.40;14.70;;;;;;;6.75;70.71;98980.43;107612;1254;61031;-39
2024/03/23 02:30:38;;;;;;;18.60;14.00;;;;;;;6.80;70.74;98983.42;107759;1254;61113;-39
2024/03/23 02:33:06;;;;;;;22.20;15.00;;;;;;;6.81;70.78;98977.16;107569;1254;73406;-39
2024/03/23 02:35:33;;;;;;;25.00;15.90;;;;;;;6.79;70.77;98976.08;107608;1254;66905;-39
2024/03/23 02:38:01;;;;;;;23.50;15.30;;;;;;;6.74;70.76;98967.42;107573;1255;72720;-39
2024/03/23 02:40:28;;;;;;;25.50;16.90;;;;;;;6.69;71.06;98965.87;107593;1254;61186;-39
2024/03/23 02:42:56;;;;;;;25.20;16.50;;;;;;;6.62;71.12;98965.30;107539;1254;61352;-39
2024/03/23 02:45:23;;;;;;;24.00;15.80;;;;;;;6.54;71.27;98964.48;107530;1255;74640;-39
2024/03/23 02:47:54;;;;;;;24.10;15.00;;;;;;;6.54;71.34;98962.48;107549;1257;67211;-39
2024/03/23 02:50:21;;;;;;;20.10;15.30;;;;;;;6.58;71.37;98958.48;107499;1254;72759;-39
2024/03/23 02:52:48;;;;;;;25.70;16.30;;;;;;;6.58;71.50;98955.10;107595;1257;61248;-39
2024/03/23 02:55:16;;;;;;;21.90;16.10;;;;;;;6.57;71.65;98955.87;107568;1254;61115;-39
2024/03/23 02:57:44;;;;;;;21.30;15.70;;;;;;;6.57;71.50;98948.23;107580;1252;73341;-38
2024/03/23 03:00:13;;;;;;;21.70;15.80;;;;;;;6.55;71.56;98947.64;107602;1254;67896;-39
2024/03/23 03:02:41;;;;;;;23.50;16.50;;;;;;;6.55;71.73;98949.17;107700;1254;72751;-39
2024/03/23 03:05:09;;;;;;;26.10;16.40;;;;;;;6.52;71.69;98943.64;107610;1255;61234;-39
2024/03/23 03:07:40;;;;;;;22.00;15.60;;;;;;;6.52;71.69;98939.42;107626;1254;61336;-38
2024/03/23 03:10:10;;;;;;;24.40;15.20;;;;;;;6.52;71.70;98935.80;107629;1254;74643;-39
2024/03/23 03:12:38;;;;;;;23.10;16.00;;;;;;;6.48;71.92;98931.67;107612;1254;67919;-39
2024/03/23 03:15:06;;;;;;;27.80;16.20;;;;;;;6.44;72.01;98928.09;107566;1254;73148;-39
2024/03/23 03:17:33;;;;;;;24.40;16.20;;;;;;;6.39;72.28;98927.29;107556;1254;61119;-39
2024/03/23 03:20:01;;;;;;;27.40;16.30;;;;;;;6.34;72.35;98925.83;107645;1254;61141;-39
2024/03/23 03:22:28;;;;;;;24.00;16.60;;;;;;;6.29;72.63;98923.89;107601;1254;74666;-39
2024/03/23 03:24:56;;;;;;;23.20;16.10;;;;;;;6.22;72.77;98923.86;107648;1254;67584;-39
2024/03/23 03:27:24;;;;;;;22.60;15.90;;;;;;;6.23;72.97;98917.83;106862;1259;1003778;-39
2024/03/23 03:29:51;;;;;;;21.50;14.80;;;;;;;6.26;73.11;98920.38;107589;1254;61365;-39
2024/03/23 03:32:19;;;;;;;21.90;16.40;;;;;;;6.24;73.05;98917.46;107641;1255;61083;-39
2024/03/23 03:34:46;;;;;;;27.70;17.50;;;;;;;6.21;73.25;98915.45;107593;1254;74654;-39
2024/03/23 03:37:13;;;;;;;22.50;16.10;;;;;;;6.18;73.54;98920.05;107562;1255;66623;-39
2024/03/23 03:39:41;;;;;;;22.80;16.60;;;;;;;6.15;73.59;98916.19;107590;1257;71748;-39
2024/03/23 03:42:09;;;;;;;23.00;16.30;;;;;;;6.11;73.80;98907.77;107573;1253;61273;-39
2024/03/23 03:44:36;;;;;;;24.60;15.30;;;;;;;6.14;73.89;98905.00;107507;1257;59920;-38
2024/03/23 03:47:05;;;;;;;21.30;15.00;;;;;;;6.19;73.89;98902.23;107577;1252;74645;-38
2024/03/23 03:49:32;;;;;;;21.90;15.60;;;;;;;6.20;73.94;98904.78;107576;1254;67651;-38
2024/03/23 03:52:01;;;;;;;22.10;16.20;;;;;;;6.19;74.04;98903.63;107230;1257;1003077;-38
2024/03/23 03:54:29;;;;;;;22.30;16.20;;;;;;;6.18;74.15;98897.59;107618;1254;61339;-38
2024/03/23 03:56:56;;;;;;;24.40;16.70;;;;;;;6.16;74.32;98896.15;107598;1255;61304;-38
2024/03/23 03:59:24;;;;;;;23.30;16.30;;;;;;;6.16;74.47;98897.45;107573;1252;74569;-39
2024/03/23 04:01:51;;;;;;;21.10;14.80;;;;;;;6.21;74.34;98896.68;107630;1257;66442;-39
2024/03/23 04:04:20;;;;;;;22.20;15.60;;;;;;;6.25;74.22;98898.47;107642;1254;71446;-39
2024/03/23 04:06:47;;;;;;;23.30;15.70;;;;;;;6.24;74.40;98899.55;107610;1254;61340;-39
2024/03/23 04:09:15;;;;;;;22.60;15.80;;;;;;;6.24;74.64;98896.15;107621;1254;60385;-38
2024/03/23 04:11:42;;;;;;;27.30;17.80;;;;;;;6.25;74.63;98891.48;107618;1254;74640;-38
2024/03/23 04:14:09;;;;;;;26.00;16.80;;;;;;;6.23;74.75;98889.21;107666;1254;66623;-38
2024/03/23 04:16:37;;;;;;;23.90;14.70;;;;;;;6.25;74.71;98891.89;107653;1259;71472;-38
2024/03/23 04:19:04;;;;;;;22.00;15.60;;;;;;;6.30;74.74;98892.95;107584;1254;61221;-38
2024/03/23 04:21:34;;;;;;;22.40;14.00;;;;;;;6.32;74.73;98892.52;107532;1254;61083;-38
2024/03/23 04:24:01;;;;;;;22.30;15.00;;;;;;;6.32;74.90;98893.91;107598;1254;74657;-38
2024/03/23 04:26:29;;;;;;;23.50;16.40;;;;;;;6.32;74.97;98890.99;107609;1254;67568;-38
2024/03/23 04:28:56;;;;;;;24.00;16.30;;;;;;;6.33;75.04;98894.55;107640;1257;71135;-38
2024/03/23 04:31:24;;;;;;;23.60;15.80;;;;;;;6.32;75.11;98890.93;107648;1254;61304;-39
2024/03/23 04:33:51;;;;;;;22.40;15.80;;;;;;;6.36;74.97;98891.10;107618;1253;61326;-38
2024/03/23 04:36:19;;;;;;;21.90;15.70;;;;;;;6.42;74.91;98891.80;107377;1256;74642;-38
2024/03/23 04:38:49;;;;;;;23.10;15.50;;;;;;;6.44;75.05;98892.02;107244;1260;67666;-38
2024/03/23 04:41:17;;;;;;;21.00;16.00;;;;;;;6.44;75.22;98891.47;107294;1259;71716;-38
2024/03/23 04:43:44;;;;;;;25.40;16.60;;;;;;;6.45;75.36;98887.11;107299;1257;61320;-39
2024/03/23 04:46:12;;;;;;;26.20;16.30;;;;;;;6.43;75.44;98882.70;107132;1254;180853;-39
2024/03/23 04:51:23;;;;;;;22.90;14.60;;;;;;;6.52;75.61;98867.61;104228;1292;600705;-38
2024/03/23 04:53:50;;;;;;;22.60;15.70;;;;;;;6.53;75.74;98870.95;106768;1269;60227;-38
2024/03/23 04:56:18;;;;;;;24.40;16.50;;;;;;;6.54;75.82;98871.42;106699;1271;60170;-38
2024/03/23 04:58:45;;;;;;;23.30;15.30;;;;;;;6.54;76.05;98865.37;106713;1266;71808;-38
2024/03/23 05:01:13;;;;;;;20.10;15.20;;;;;;;6.55;76.05;98866.85;105987;1266;1003758;-38
2024/03/23 05:03:41;;;;;;;23.50;15.70;;;;;;;6.63;76.02;98866.83;106703;1271;72697;-39
2024/03/23 05:06:08;;;;;;;22.10;14.90;;;;;;;6.70;75.99;98864.71;106610;1265;59695;-38
2024/03/23 05:08:36;;;;;;;23.80;15.70;;;;;;;6.72;76.01;98861.68;106780;1268;59639;-38
2024/03/23 05:11:03;;;;;;;20.90;15.60;;;;;;;6.71;76.12;98859.66;106737;1264;73026;-38
2024/03/23 05:13:30;;;;;;;23.50;16.00;;;;;;;6.72;76.25;98862.23;106742;1268;67606;-38
2024/03/23 05:15:58;;;;;;;22.50;14.90;;;;;;;6.72;76.36;98860.67;106693;1268;72675;-38
2024/03/23 05:18:28;;;;;;;21.80;15.40;;;;;;;6.76;76.29;98857.79;106799;1264;60866;-38
2024/03/23 05:20:59;;;;;;;23.80;15.40;;;;;;;6.84;76.20;98858.75;106743;1262;59244;-38
2024/03/23 05:23:26;;;;;;;23.90;15.30;;;;;;;6.85;76.21;98860.25;106787;1263;72713;-38
2024/03/23 05:25:55;;;;;;;23.80;15.60;;;;;;;6.84;76.30;98859.51;106735;1263;67642;-38
2024/03/23 05:28:23;;;;;;;23.00;15.20;;;;;;;6.83;76.22;98863.11;106698;1268;73010;-38
2024/03/23 05:30:54;;;;;;;22.90;14.70;;;;;;;6.83;76.34;98861.59;106731;1266;61753;-38
2024/03/23 05:33:21;;;;;;;19.70;14.40;;;;;;;6.90;76.14;98864.75;106766;1269;60514;-38
2024/03/23 05:35:56;;;;;;;19.90;14.00;;;;;;;6.99;75.82;98869.52;106747;1263;72133;-38
2024/03/23 05:38:24;;;;;;;19.00;13.90;;;;;;;7.02;75.68;98865.83;106814;1263;66768;-38
2024/03/23 05:40:58;;;;;;;24.50;16.30;;;;;;;7.01;75.71;98868.34;106791;1268;72731;-38
2024/03/23 05:43:26;;;;;;;21.70;14.60;;;;;;;6.99;75.74;98864.83;106880;1263;60431;-38
2024/03/23 05:45:57;;;;;;;19.60;14.00;;;;;;;6.98;75.82;98864.96;106775;1268;60339;-38
2024/03/23 05:48:25;;;;;;;22.50;14.50;;;;;;;7.02;75.76;98863.75;106792;1263;73817;-38
2024/03/23 05:50:53;;;;;;;20.90;13.80;;;;;;;7.10;75.66;98863.47;106842;1268;67589;-38
2024/03/23 05:53:20;;;;;;;21.50;14.60;;;;;;;7.14;75.65;98865.35;106782;1268;71460;-38
2024/03/23 05:55:48;;;;;;;22.60;14.30;;;;;;;7.16;75.70;98862.25;106753;1268;60415;-38
2024/03/23 05:58:16;;;;;;;24.30;18.30;;;;;;;7.19;75.59;98863.09;107266;1257;60534;-39
2024/03/23 06:00:44;;;;;;;49.70;31.90;;;;;;;7.21;75.55;98861.14;107484;1257;73854;-38
2024/03/23 06:03:11;;;;;;;42.50;31.10;;;;;;;7.27;75.28;98859.12;107298;1257;67601;-38
2024/03/23 06:05:38;;;;;;;20.40;16.20;;;;;;;7.34;75.12;98857.38;107257;1258;72727;-39
2024/03/23 06:08:09;;;;;;;21.70;15.20;;;;;;;7.39;75.05;98858.64;107245;1262;60508;-38
2024/03/23 06:10:36;;;;;;;20.20;13.60;;;;;;;7.41;74.85;98859.14;107324;1260;60306;-38
2024/03/23 06:13:04;;;;;;;21.50;14.20;;;;;;;7.42;74.92;98859.09;107207;1255;72574;-38
2024/03/23 06:15:31;;;;;;;28.90;20.10;;;;;;;7.43;74.88;98857.98;107235;1263;67573;-39
2024/03/23 06:17:59;;;;;;;37.70;23.20;;;;;;;7.46;74.80;98855.39;107218;1256;72710;-39
2024/03/23 06:20:27;;;;;;;21.10;15.00;;;;;;;7.53;74.67;98854.55;107283;1262;60447;-38
2024/03/23 06:22:56;;;;;;;19.30;15.00;;;;;;;7.60;74.38;98854.63;107221;1260;59601;-39
2024/03/23 06:25:23;;;;;;;18.10;13.10;;;;;;;7.63;74.41;98853.08;107269;1257;73819;-38
2024/03/23 06:27:51;;;;;;;18.50;13.70;;;;;;;7.63;74.32;98855.64;107266;1258;67582;-38
2024/03/23 06:30:18;;;;;;;18.60;14.00;;;;;;;7.64;74.28;98854.52;107263;1257;72674;-39
2024/03/23 06:32:45;;;;;;;19.10;13.70;;;;;;;7.64;74.21;98852.12;107182;1257;60426;-39
2024/03/23 06:35:13;;;;;;;17.30;12.60;;;;;;;7.65;74.17;98851.81;107123;1257;60476;-39
2024/03/23 06:37:40;;;;;;;19.20;13.20;;;;;;;7.68;73.92;98848.65;107126;1256;72562;-39
2024/03/23 06:40:09;;;;;;;17.10;12.40;;;;;;;7.71;73.75;98843.02;107148;1258;66502;-39
2024/03/23 06:42:37;;;;;;;20.00;13.80;;;;;;;7.71;73.92;98843.86;107243;1257;71070;-39
2024/03/23 06:45:05;;;;;;;18.60;13.50;;;;;;;7.69;74.08;98844.98;107128;1261;60444;-39
2024/03/23 06:47:34;;;;;;;19.80;13.30;;;;;;;7.68;74.06;98847.57;107185;1258;60786;-39
2024/03/23 06:50:02;;;;;;;19.60;13.90;;;;;;;7.68;74.18;98849.91;107241;1257;73851;-39
2024/03/23 06:52:30;;;;;;;19.30;13.40;;;;;;;7.68;74.28;98850.19;107302;1258;67624;-39
2024/03/23 06:54:58;;;;;;;19.50;12.30;;;;;;;7.74;74.17;98850.33;107122;1256;71534;-39
2024/03/23 06:57:25;;;;;;;17.50;13.00;;;;;;;7.83;74.03;98853.30;107209;1257;60331;-39
2024/03/23 06:59:52;;;;;;;17.50;12.80;;;;;;;7.84;73.86;98844.92;107140;1260;60514;-39
2024/03/23 07:02:20;;;;;;;18.10;13.40;;;;;;;7.83;73.78;98844.05;107120;1261;72619;-39
2024/03/23 07:04:47;;;;;;;21.60;13.90;;;;;;;7.81;73.80;98844.70;107198;1260;67683;-39
2024/03/23 07:07:14;;;;;;;19.00;13.20;;;;;;;7.80;73.98;98842.27;107244;1258;73078;-38
2024/03/23 07:09:42;;;;;;;20.60;13.50;;;;;;;7.80;73.98;98838.89;107205;1261;60431;-38
2024/03/23 07:12:09;;;;;;;17.60;13.30;;;;;;;7.87;73.79;98838.41;107143;1257;60355;-38
2024/03/23 07:14:37;;;;;;;20.70;13.60;;;;;;;7.95;73.42;98838.35;107532;1254;73851;-38
2024/03/23 07:17:04;;;;;;;16.50;13.70;;;;;;;7.96;73.50;98834.90;107511;1254;66760;-38
2024/03/23 07:19:33;;;;;;;18.60;13.40;;;;;;;7.96;73.62;98833.59;106723;1253;1002822;-38
2024/03/23 07:22:00;;;;;;;20.20;14.40;;;;;;;7.97;73.51;98833.45;107485;1256;60064;-38
2024/03/23 07:24:28;;;;;;;20.00;13.00;;;;;;;7.98;73.63;98831.56;107499;1256;60514;-38
2024/03/23 07:26:57;;;;;;;18.30;12.40;;;;;;;8.08;73.54;98829.67;107509;1254;73885;-38
2024/03/23 07:29:25;;;;;;;16.10;12.70;;;;;;;8.17;73.29;98830.02;107500;1254;66791;-38
2024/03/23 07:31:52;;;;;;;20.80;14.40;;;;;;;8.19;73.22;98832.45;107501;1254;72703;-38
2024/03/23 07:34:20;;;;;;;17.90;13.00;;;;;;;8.20;73.16;98830.00;107495;1254;60563;-38
2024/03/23 07:36:47;;;;;;;18.70;14.60;;;;;;;8.23;73.09;98824.02;107505;1254;60367;-38
2024/03/23 07:39:14;;;;;;;19.90;13.80;;;;;;;8.26;73.24;98825.10;107538;1254;72582;-38
2024/03/23 07:41:45;;;;;;;19.40;13.00;;;;;;;8.36;73.26;98823.85;107510;1254;67651;-38
2024/03/23 07:44:12;;;;;;;;;;;;;;;8.49;72.91;98824.02;107538;1253;73839;-38
2024/03/23 07:46:39;;;;;;;20.80;15.00;;;;;;;8.49;72.37;98809.88;107508;1253;60473;-38
2024/03/23 07:49:06;;;;;;;19.60;14.20;;;;;;;8.59;72.37;98819.41;107517;1254;60313;-38
2024/03/23 07:51:34;;;;;;;20.10;14.80;;;;;;;8.64;72.51;98816.17;107551;1254;73833;-38
2024/03/23 07:54:02;;;;;;;19.10;14.30;;;;;;;8.73;72.21;98815.71;107583;1253;66736;-37
2024/03/23 07:56:31;;;;;;;23.10;14.50;;;;;;;8.82;71.53;98815.64;107407;1254;72659;-38
2024/03/23 07:58:58;;;;;;;23.30;14.40;;;;;;;8.95;71.19;98810.31;107399;1254;59764;-38
2024/03/23 08:01:25;;;;;;;19.30;13.80;;;;;;;9.05;70.79;98807.30;107455;1256;60233;-37
2024/03/23 08:03:54;;;;;;;20.20;14.60;;;;;;;9.14;70.61;98807.82;107592;1254;74691;-37
2024/03/23 08:06:23;;;;;;;20.10;15.10;;;;;;;9.24;70.36;98801.70;107500;1257;67646;-37
2024/03/23 08:09:00;;;;;;;19.60;14.50;;;;;;;9.33;70.36;98803.64;107500;1254;71475;-37
2024/03/23 08:11:28;;;;;;;18.00;14.10;;;;;;;9.46;70.11;98809.77;107499;1254;60395;-38
2024/03/23 08:13:56;;;;;;;20.40;14.10;;;;;;;9.64;69.57;98808.48;107567;1257;60017;-37
2024/03/23 08:16:24;;;;;;;19.60;14.70;;;;;;;9.79;68.47;98809.06;107496;1256;73963;-38
2024/03/23 08:18:51;;;;;;;20.80;15.60;;;;;;;9.86;68.10;98801.80;107449;1254;66670;-38
2024/03/23 08:21:19;;;;;;;21.20;15.00;;;;;;;9.92;67.81;98799.55;107418;1254;72645;-38
2024/03/23 08:23:46;;;;;;;22.00;15.10;;;;;;;9.93;67.50;98791.91;107500;1254;60517;-38
2024/03/23 08:26:15;;;;;;;21.00;15.60;;;;;;;10.01;67.54;98800.23;107515;1252;60517;-37
2024/03/23 08:28:44;;;;;;;16.60;11.70;;;;;;;10.04;67.95;98791.27;107518;1254;72610;-38
2024/03/23 08:31:12;;;;;;;18.50;14.00;;;;;;;10.17;67.53;98786.63;107478;1254;66429;-38
2024/03/23 08:33:39;;;;;;;20.80;14.80;;;;;;;10.28;66.85;98782.66;107490;1254;72741;-37
2024/03/23 08:36:08;;;;;;;19.80;15.00;;;;;;;10.32;66.59;98779.45;107504;1254;60329;-38
2024/03/23 08:38:35;;;;;;;21.90;15.20;;;;;;;10.31;66.50;98769.08;107553;1252;60312;-38
2024/03/23 08:41:07;;;;;;;19.60;15.50;;;;;;;10.32;66.79;98772.64;107521;1254;72323;-38
2024/03/23 08:43:39;;;;;;;19.30;15.10;;;;;;;10.33;66.95;98769.33;107562;1255;67665;-38
2024/03/23 08:46:08;;;;;;;22.20;15.20;;;;;;;10.35;67.16;98772.99;107533;1253;71461;-38
2024/03/23 08:48:38;;;;;;;21.20;14.60;;;;;;;10.38;67.14;98770.02;107507;1254;61732;-38
2024/03/23 08:51:07;;;;;;;20.10;15.20;;;;;;;10.44;67.12;98766.89;107510;1252;61938;-38
2024/03/23 08:53:35;;;;;;;21.90;16.10;;;;;;;10.46;67.17;98760.30;107505;1254;72330;-38
2024/03/23 08:56:04;;;;;;;22.10;15.80;;;;;;;10.47;66.48;98756.06;106802;1254;1002718;-37
2024/03/23 08:58:31;;;;;;;21.20;15.20;;;;;;;10.46;66.60;98753.58;107491;1254;72843;-38
2024/03/23 09:01:09;;;;;;;24.90;15.90;;;;;;;10.46;66.80;98752.34;107547;1255;61067;-38
2024/03/23 09:03:37;;;;;;;22.90;15.80;;;;;;;10.50;67.21;98751.77;107519;1254;61276;-38
2024/03/23 09:06:11;;;;;;;21.30;15.50;;;;;;;10.55;67.23;98750.96;107499;1254;74780;-38
2024/03/23 09:08:40;;;;;;;20.80;14.90;;;;;;;10.69;66.72;98746.28;107505;1254;70055;-38
2024/03/23 09:11:09;;;;;;;19.90;15.10;;;;;;;10.80;66.04;98743.58;107488;1254;71812;-38
2024/03/23 09:13:37;;;;;;;22.00;15.10;;;;;;;10.86;66.17;98739.98;107520;1254;61324;-38
2024/03/23 09:16:05;;;;;;;19.80;14.40;;;;;;;10.93;66.04;98741.12;107631;1253;61256;-38
2024/03/23 09:18:33;;;;;;;22.40;15.60;;;;;;;11.02;65.63;98743.05;107552;1254;74655;-38
2024/03/23 09:21:02;;;;;;;22.80;16.30;;;;;;;11.07;64.72;98739.29;107559;1254;66700;-38
2024/03/23 09:23:29;;;;;;;20.70;15.30;;;;;;;11.10;64.86;98737.99;107510;1253;71483;-38
2024/03/23 09:25:57;;;;;;;20.00;14.30;;;;;;;11.14;65.28;98733.75;107480;1254;61129;-38
2024/03/23 09:28:25;;;;;;;20.90;14.80;;;;;;;11.17;65.02;98729.58;107554;1253;61220;-38
2024/03/23 09:30:52;;;;;;;18.80;14.60;;;;;;;11.24;65.08;98722.42;107478;1254;74843;-38
2024/03/23 09:33:20;;;;;;;20.40;15.10;;;;;;;11.31;64.75;98725.88;107484;1254;66795;-38
2024/03/23 09:35:47;;;;;;;19.40;14.70;;;;;;;11.32;64.89;98718.04;107483;1254;74843;-38
2024/03/23 09:38:16;;;;;;;21.10;14.80;;;;;;;11.33;65.17;98718.36;107489;1258;61228;-38
2024/03/23 09:40:45;;;;;;;21.40;14.80;;;;;;;11.36;65.09;98713.10;107511;1254;61209;-38
2024/03/23 09:43:13;;;;;;;21.70;14.00;;;;;;;11.38;64.72;98715.66;107505;1252;73432;-39
2024/03/23 09:45:41;;;;;;;19.80;14.90;;;;;;;11.39;64.41;98706.28;107520;1254;68105;-39
2024/03/23 09:48:09;;;;;;;20.70;14.30;;;;;;;11.41;64.37;98708.26;107542;1254;75061;-39
2024/03/23 09:50:38;;;;;;;20.60;14.20;;;;;;;11.43;63.88;98701.73;107517;1254;60462;-39
2024/03/23 09:53:06;;;;;;;19.10;13.50;;;;;;;11.46;63.75;98706.41;107475;1253;61382;-39
2024/03/23 09:55:37;;;;;;;17.40;12.50;;;;;;;11.54;64.04;98699.00;107760;1253;73499;-38
2024/03/23 09:58:05;;;;;;;17.90;12.70;;;;;;;11.62;63.83;98699.96;107686;1253;66548;-39
2024/03/23 10:00:33;;;;;;;19.90;14.40;;;;;;;11.67;63.64;98700.36;107492;1257;73202;-38
2024/03/23 10:03:04;;;;;;;16.20;13.10;;;;;;;11.71;63.47;98698.38;107548;1253;61220;-38
2024/03/23 10:05:35;;;;;;;17.40;13.40;;;;;;;11.75;63.09;98697.64;107473;1254;61151;-38
2024/03/23 10:08:14;;;;;;;16.60;12.10;;;;;;;11.78;62.69;98690.42;107494;1252;73514;-38
2024/03/23 10:10:41;;;;;;;17.00;13.00;;;;;;;11.80;63.01;98695.02;107667;1253;69864;-38
2024/03/23 10:13:09;;;;;;;16.40;13.20;;;;;;;11.84;62.76;98690.68;107496;1253;71447;-38
2024/03/23 10:15:37;;;;;;;18.40;13.50;;;;;;;11.88;63.14;98686.34;107433;1254;61793;-38
2024/03/23 10:18:25;;;;;;;16.60;12.30;;;;;;;11.93;62.97;98687.76;107523;1254;61395;-38
2024/03/23 10:21:05;;;;;;;19.10;13.00;;;;;;;12.06;62.18;98672.48;107497;1252;74651;-38
2024/03/23 10:23:36;;;;;;;19.10;12.60;;;;;;;12.16;62.10;98669.55;107487;1253;66569;-38
2024/03/23 10:26:21;;;;;;;15.60;11.60;;;;;;;12.22;62.27;98667.31;107538;1253;74907;-38
2024/03/23 10:29:04;;;;;;;14.90;11.70;;;;;;;12.30;62.54;98667.25;107546;1253;61152;-38
2024/03/23 10:31:32;;;;;;;17.40;12.40;;;;;;;12.38;62.67;98663.36;107530;1253;62200;-38
2024/03/23 10:34:00;;;;;;;17.10;12.50;;;;;;;12.42;62.37;98660.34;107484;1257;74789;-38
2024/03/23 10:36:28;;;;;;;15.80;12.20;;;;;;;12.42;61.52;98658.24;107553;1257;70360;-38
2024/03/23 10:38:56;;;;;;;15.70;12.00;;;;;;;12.40;61.82;98649.07;107465;1253;71936;-38
2024/03/23 10:41:24;;;;;;;19.70;12.30;;;;;;;12.41;61.73;98642.55;107529;1254;61263;-38
2024/03/23 10:43:52;;;;;;;16.30;11.80;;;;;;;12.41;61.77;98640.38;107409;1252;61355;-38
2024/03/23 10:46:19;;;;;;;20.80;13.50;;;;;;;12.40;61.63;98641.84;107397;1254;73526;-38
2024/03/23 10:48:46;;;;;;;17.50;12.70;;;;;;;12.38;61.32;98642.55;107345;1253;68138;-38
2024/03/23 10:51:14;;;;;;;16.20;13.10;;;;;;;12.34;61.35;98637.59;107483;1253;72693;-38
2024/03/23 10:53:42;;;;;;;17.10;12.90;;;;;;;12.31;61.29;98635.02;107307;1253;60903;-38
2024/03/23 10:56:09;;;;;;;19.40;13.20;;;;;;;12.26;61.29;98637.27;107474;1253;61154;-38
2024/03/23 10:58:44;;;;;;;18.40;13.20;;;;;;;12.20;61.45;98628.95;107299;1253;74340;-38
2024/03/23 11:01:13;;;;;;;16.70;11.50;;;;;;;12.16;62.39;98618.94;107340;1253;68103;-38
2024/03/23 11:03:45;;;;;;;15.00;11.80;;;;;;;12.20;63.03;98617.16;107509;1258;74839;-38
2024/03/23 11:06:36;;;;;;;16.20;11.90;;;;;;;12.29;63.05;98616.61;107475;1253;61192;-38
2024/03/23 11:09:21;;;;;;;15.60;12.40;;;;;;;12.31;62.55;98611.48;107315;1253;61138;-38
2024/03/23 11:11:48;;;;;;;18.50;13.20;;;;;;;12.31;62.11;98609.07;107462;1253;74866;-38
2024/03/23 11:14:23;;;;;;;17.60;12.80;;;;;;;12.29;62.36;98606.60;107507;1253;67763;-38
2024/03/23 11:17:10;;;;;;;17.90;13.10;;;;;;;12.27;62.27;98611.42;107537;1253;72808;-38
2024/03/23 11:19:38;;;;;;;18.70;13.20;;;;;;;12.23;62.04;98608.77;107324;1253;61162;-39
2024/03/23 11:22:06;;;;;;;18.50;12.80;;;;;;;12.19;62.57;98607.14;107468;1253;61228;-39